Time;durP1;ratioP1;P1;durP2;ratioP2;P2;SDS_P1;SDS_P2;PMS_P1;PMS_P2;Temp;Humidity;BMP_temperature;BMP_pressure;BME280_temperature;BME280_humidity;BME280_pressure;Samples;Min_cycle;Max_cycle;Signal;HPM_P1;HPM_P2
2022/11/15 00:01:09;;;;;;;260.63;125.23;;;;;;;4.80;100.00;95226.06;5028042;28;20200;-79
2022/11/15 00:03:35;;;;;;;253.53;120.00;;;;;;;4.75;100.00;95226.56;5026940;28;20192;-79
2022/11/15 00:06:05;;;;;;;254.90;120.23;;;;;;;4.80;100.00;95233.78;5018107;28;20293;-76
2022/11/15 00:08:32;;;;;;;221.43;111.37;;;;;;;4.84;100.00;95235.06;5020850;28;20705;-80
2022/11/15 00:11:00;;;;;;;219.80;109.00;;;;;;;4.77;100.00;95228.97;5025843;28;20223;-80
2022/11/15 00:13:28;;;;;;;225.50;109.23;;;;;;;4.77;100.00;95226.38;5015308;28;20662;-76
2022/11/15 00:15:57;;;;;;;225.20;105.43;;;;;;;4.75;100.00;95230.91;5015737;28;20667;-77
2022/11/15 00:18:24;;;;;;;229.80;104.77;;;;;;;4.67;100.00;95213.75;5017772;28;20201;-76
2022/11/15 00:20:51;;;;;;;224.00;106.00;;;;;;;4.75;100.00;95218.84;5016618;28;20199;-76
2022/11/15 00:23:20;;;;;;;203.93;100.60;;;;;;;4.79;100.00;95222.66;5014516;28;20192;-76
2022/11/15 00:25:46;;;;;;;193.13;93.17;;;;;;;4.75;100.00;95223.19;5015530;28;20210;-76
2022/11/15 00:28:13;;;;;;;179.53;89.53;;;;;;;4.71;100.00;95211.59;5013662;28;20723;-75
2022/11/15 00:31:01;;;;;;;183.53;85.33;;;;;;;4.70;100.00;95202.31;5016092;28;20720;-78
2022/11/15 00:33:28;;;;;;;185.67;92.80;;;;;;;4.77;100.00;95209.16;5015332;28;20258;-76
2022/11/15 00:36:00;;;;;;;190.73;91.03;;;;;;;4.78;100.00;95215.13;5015519;28;20209;-76
2022/11/15 00:38:33;;;;;;;198.13;94.13;;;;;;;4.70;100.00;95213.41;5016428;28;20343;-76
2022/11/15 00:41:01;;;;;;;176.03;86.13;;;;;;;4.67;100.00;95216.31;5016368;28;20742;-75
2022/11/15 00:43:28;;;;;;;151.63;72.47;;;;;;;4.62;100.00;95207.50;5014005;28;20203;-75
2022/11/15 00:45:55;;;;;;;152.23;71.30;;;;;;;4.58;100.00;95212.97;5016306;28;20278;-77
2022/11/15 00:48:22;;;;;;;153.13;70.93;;;;;;;4.55;100.00;95213.31;5013493;28;20239;-76
2022/11/15 00:50:49;;;;;;;143.10;68.73;;;;;;;4.51;100.00;95209.44;5019456;28;20202;-77
2022/11/15 00:53:16;;;;;;;151.97;71.93;;;;;;;4.47;100.00;95200.44;5015328;28;20208;-77
2022/11/15 00:55:45;;;;;;;158.33;74.67;;;;;;;4.54;100.00;95203.16;5016636;28;20207;-76
2022/11/15 00:58:11;;;;;;;161.27;77.43;;;;;;;4.53;100.00;95206.72;5012988;28;20207;-77
2022/11/15 01:00:38;;;;;;;149.13;75.47;;;;;;;4.50;100.00;95207.06;5014981;28;20197;-76
2022/11/15 01:03:05;;;;;;;155.47;73.47;;;;;;;4.44;100.00;95192.28;5017080;28;20193;-77
2022/11/15 01:05:32;;;;;;;155.97;75.93;;;;;;;4.49;100.00;95197.72;5017886;28;20250;-76
2022/11/15 01:07:58;;;;;;;155.30;76.30;;;;;;;4.46;100.00;95193.72;5020139;28;20215;-77
2022/11/15 01:10:25;;;;;;;164.33;76.03;;;;;;;4.41;100.00;95190.84;5018106;28;20207;-75
2022/11/15 01:12:54;;;;;;;155.33;75.37;;;;;;;4.46;100.00;95198.88;5026261;28;20227;-76
2022/11/15 01:15:20;;;;;;;161.57;77.97;;;;;;;4.43;100.00;95193.25;5017909;28;20351;-76
2022/11/15 01:17:47;;;;;;;163.97;78.40;;;;;;;4.42;100.00;95195.00;5019085;28;20254;-75
2022/11/15 01:20:14;;;;;;;174.73;80.40;;;;;;;4.32;100.00;95191.03;5021345;28;20267;-82
2022/11/15 01:22:41;;;;;;;169.83;81.47;;;;;;;4.20;100.00;95184.63;5024640;28;20649;-80
2022/11/15 01:25:08;;;;;;;198.17;85.93;;;;;;;4.30;100.00;95198.13;5032935;28;20188;-78
2022/11/15 01:27:34;;;;;;;171.47;81.47;;;;;;;4.23;100.00;95197.97;5029753;28;20729;-80
2022/11/15 01:30:03;;;;;;;171.20;79.77;;;;;;;4.19;100.00;95196.69;5029715;28;20207;-80
2022/11/15 01:32:30;;;;;;;166.93;78.33;;;;;;;4.22;100.00;95193.78;5047804;28;20208;-81
2022/11/15 01:34:57;;;;;;;161.57;72.07;;;;;;;4.25;100.00;95197.78;5035756;28;20195;-81
2022/11/15 01:37:23;;;;;;;147.13;71.20;;;;;;;4.19;100.00;95194.13;5027186;28;20198;-80
2022/11/15 01:39:50;;;;;;;166.67;71.70;;;;;;;4.20;100.00;95190.59;5024492;28;20644;-79
2022/11/15 01:42:17;;;;;;;134.93;63.80;;;;;;;4.19;100.00;95191.56;5020779;28;20257;-78
2022/11/15 01:44:47;;;;;;;138.60;62.57;;;;;;;4.18;100.00;95181.44;5019493;28;20199;-78
2022/11/15 01:47:20;;;;;;;138.50;64.83;;;;;;;4.11;100.00;95168.44;5020405;28;20231;-78
2022/11/15 01:49:53;;;;;;;149.47;66.43;;;;;;;4.15;100.00;95185.16;5019741;28;20680;-79
2022/11/15 01:52:23;;;;;;;158.77;74.10;;;;;;;4.16;100.00;95180.78;5037899;28;20274;-79
2022/11/15 01:54:54;;;;;;;163.67;72.00;;;;;;;4.15;100.00;95180.00;5022264;28;20201;-79
2022/11/15 01:57:21;;;;;;;153.33;69.77;;;;;;;4.04;100.00;95182.13;5024994;28;20670;-79
2022/11/15 01:59:48;;;;;;;152.13;70.57;;;;;;;4.00;100.00;95181.66;5019467;28;20198;-79
2022/11/15 02:02:16;;;;;;;143.60;69.40;;;;;;;4.01;100.00;95185.84;5024403;28;20631;-79
2022/11/15 02:04:45;;;;;;;139.23;65.50;;;;;;;4.01;100.00;95180.69;5025955;28;20286;-78
2022/11/15 02:07:15;;;;;;;136.23;64.93;;;;;;;3.92;100.00;95182.47;5019304;28;20192;-80
2022/11/15 02:09:43;;;;;;;135.07;61.90;;;;;;;3.98;100.00;95181.78;5026204;28;20909;-79
2022/11/15 02:12:12;;;;;;;120.93;59.80;;;;;;;3.94;100.00;95164.31;5020433;28;20204;-80
2022/11/15 02:14:41;;;;;;;126.67;59.07;;;;;;;4.05;100.00;95179.38;5020845;28;20187;-79
2022/11/15 02:17:24;;;;;;;137.50;62.90;;;;;;;4.03;100.00;95183.09;5035060;28;20198;-80
2022/11/15 02:20:24;;;;;;;128.67;61.63;;;;;;;3.97;100.00;95179.41;5015505;28;20191;-80
2022/11/15 02:23:13;;;;;;;134.20;61.33;;;;;;;3.99;100.00;95175.69;5020561;28;20199;-80
2022/11/15 02:25:51;;;;;;;137.47;64.83;;;;;;;3.99;100.00;95180.03;5019820;28;20689;-81
2022/11/15 02:28:44;;;;;;;146.43;66.97;;;;;;;3.93;100.00;95180.69;5022324;28;20764;-80
2022/11/15 02:31:19;;;;;;;147.67;70.03;;;;;;;3.95;100.00;95178.78;5020089;28;20195;-82
2022/11/15 02:33:54;;;;;;;158.97;73.00;;;;;;;3.90;100.00;95179.25;5029134;28;20771;-80
2022/11/15 02:36:30;;;;;;;165.13;74.83;;;;;;;3.84;100.00;95172.19;5029725;28;20637;-79
2022/11/15 02:39:03;;;;;;;162.37;72.27;;;;;;;3.91;100.00;95165.44;5021150;28;20251;-80
2022/11/15 02:41:37;;;;;;;161.57;75.97;;;;;;;3.95;100.00;95178.78;5021226;28;20687;-79
2022/11/15 02:44:07;;;;;;;156.83;73.53;;;;;;;3.89;100.00;95169.94;5023191;28;20197;-79
2022/11/15 02:49:28;;;;;;;150.73;70.60;;;;;;;3.78;100.00;95160.00;5023813;28;20320;-79
2022/11/15 02:51:56;;;;;;;143.80;66.97;;;;;;;3.75;100.00;95169.81;5030393;28;20198;-80
2022/11/15 02:54:27;;;;;;;147.60;70.10;;;;;;;3.73;100.00;95164.03;5025203;28;20209;-79
2022/11/15 02:56:56;;;;;;;148.63;71.20;;;;;;;3.72;100.00;95160.63;5021740;28;20237;-79
2022/11/15 02:59:41;;;;;;;152.43;72.53;;;;;;;3.72;100.00;95176.06;5024179;28;20207;-80
2022/11/15 03:02:21;;;;;;;151.83;71.73;;;;;;;3.74;100.00;95178.47;5018756;28;20195;-78
2022/11/15 03:04:56;;;;;;;150.80;72.80;;;;;;;3.72;100.00;95180.41;5015271;28;20717;-79
2022/11/15 03:07:30;;;;;;;162.97;76.13;;;;;;;3.78;100.00;95190.06;5018716;28;20203;-80
2022/11/15 03:10:06;;;;;;;164.97;76.20;;;;;;;3.79;100.00;95176.22;5025256;28;20199;-79
2022/11/15 03:12:38;;;;;;;176.00;80.67;;;;;;;3.83;100.00;95180.06;5025348;28;20191;-79
2022/11/15 03:15:10;;;;;;;166.30;78.73;;;;;;;3.91;100.00;95170.59;5024416;28;20264;-79
2022/11/15 03:17:43;;;;;;;173.27;79.53;;;;;;;3.92;100.00;95168.81;5021956;28;20512;-80
2022/11/15 03:20:14;;;;;;;164.67;77.23;;;;;;;3.95;100.00;95158.22;5028184;28;20653;-80
2022/11/15 03:22:44;;;;;;;150.13;73.53;;;;;;;4.01;100.00;95166.03;5021396;28;20206;-80
2022/11/15 03:25:17;;;;;;;149.80;73.70;;;;;;;4.03;100.00;95157.38;5034817;28;20198;-79
2022/11/15 03:27:50;;;;;;;158.60;74.73;;;;;;;4.09;100.00;95167.81;5017478;28;20206;-77
2022/11/15 03:30:19;;;;;;;150.73;69.97;;;;;;;4.23;100.00;95161.16;5017556;28;20191;-80
2022/11/15 03:32:50;;;;;;;149.60;70.63;;;;;;;4.29;100.00;95157.94;5019422;28;20656;-80
2022/11/15 03:35:21;;;;;;;144.17;69.93;;;;;;;4.32;100.00;95155.03;5026258;28;20201;-79
2022/11/15 03:37:52;;;;;;;146.77;70.37;;;;;;;4.33;100.00;95161.78;5016047;28;20199;-79
2022/11/15 03:40:25;;;;;;;160.80;71.10;;;;;;;4.34;100.00;95150.50;5018584;28;20199;-80
2022/11/15 03:43:03;;;;;;;154.03;68.77;;;;;;;4.38;100.00;95152.59;5016714;28;20667;-80
2022/11/15 03:45:34;;;;;;;141.80;66.07;;;;;;;4.44;100.00;95151.91;5021101;28;20220;-79
2022/11/15 03:48:07;;;;;;;140.10;66.93;;;;;;;4.42;100.00;95130.69;5024187;28;20215;-80
2022/11/15 03:50:35;;;;;;;146.17;64.93;;;;;;;4.51;100.00;95141.75;5026856;28;20193;-80
2022/11/15 03:53:02;;;;;;;123.47;60.00;;;;;;;4.62;100.00;95150.88;5037121;28;20200;-79
2022/11/15 03:55:29;;;;;;;126.37;58.93;;;;;;;4.64;100.00;95146.34;5018303;28;20201;-79
2022/11/15 03:58:01;;;;;;;122.13;59.00;;;;;;;4.68;100.00;95137.28;5020320;28;20213;-77
2022/11/15 04:00:29;;;;;;;137.73;61.07;;;;;;;4.74;100.00;95137.44;5017535;28;20203;-77
2022/11/15 04:02:55;;;;;;;132.60;61.37;;;;;;;4.81;100.00;95140.13;5018186;28;20253;-76
2022/11/15 04:05:24;;;;;;;128.70;60.20;;;;;;;4.75;100.00;95131.31;5013475;28;20270;-75
2022/11/15 04:07:50;;;;;;;129.47;57.00;;;;;;;4.79;100.00;95136.94;5019308;28;20214;-76
2022/11/15 04:10:17;;;;;;;120.23;53.20;;;;;;;4.79;100.00;95130.00;5015228;28;20231;-76
2022/11/15 04:12:47;;;;;;;118.87;52.40;;;;;;;4.85;100.00;95136.25;5018206;28;20204;-78
2022/11/15 04:15:16;;;;;;;106.93;47.13;;;;;;;4.87;100.00;95127.38;5018145;28;20245;-78
2022/11/15 04:17:45;;;;;;;104.83;45.03;;;;;;;4.91;100.00;95126.06;5019312;28;20200;-79
2022/11/15 04:25:51;;;;;;;119.27;45.77;;;;;;;5.06;100.00;95128.69;5014309;28;20253;-76
2022/11/15 04:28:19;;;;;;;113.57;44.63;;;;;;;5.05;100.00;95125.31;5016335;28;20214;-77
2022/11/15 04:30:45;;;;;;;114.17;46.87;;;;;;;5.12;100.00;95133.16;5017806;28;20208;-76
2022/11/15 04:33:12;;;;;;;112.47;45.80;;;;;;;5.12;100.00;95140.88;5013899;28;20734;-76
2022/11/15 04:35:39;;;;;;;122.47;48.03;;;;;;;5.13;100.00;95129.63;5019688;28;20204;-76
2022/11/15 04:38:09;;;;;;;108.70;42.67;;;;;;;5.15;100.00;95125.88;5016904;28;20216;-76
2022/11/15 04:40:36;;;;;;;106.63;40.43;;;;;;;5.20;100.00;95133.09;5026726;28;20225;-77
2022/11/15 04:43:03;;;;;;;94.83;40.10;;;;;;;5.20;100.00;95129.69;5022194;28;20208;-78
2022/11/15 04:45:30;;;;;;;97.70;40.37;;;;;;;5.15;100.00;95127.66;5021996;28;20201;-79
2022/11/15 04:47:56;;;;;;;93.53;37.80;;;;;;;5.12;100.00;95138.31;5027970;28;20626;-84
2022/11/15 04:50:23;;;;;;;98.57;38.03;;;;;;;5.16;100.00;95134.44;5022331;28;21379;-79
2022/11/15 04:52:53;;;;;;;102.63;42.13;;;;;;;5.13;100.00;95120.13;5021040;28;20200;-79
2022/11/15 04:55:21;;;;;;;113.23;44.50;;;;;;;5.24;100.00;95141.28;5001602;28;20535;-79
2022/11/15 04:57:48;;;;;;;100.77;41.10;;;;;;;5.22;100.00;95141.47;5018884;28;20275;-79
2022/11/15 05:00:17;;;;;;;100.33;39.57;;;;;;;5.20;100.00;95134.84;5024197;28;20207;-78
2022/11/15 05:05:28;;;;;;;89.17;35.03;;;;;;;5.12;100.00;95131.38;5024131;28;20234;-79
2022/11/15 05:07:55;;;;;;;104.87;36.70;;;;;;;5.20;100.00;95135.66;5019552;28;20260;-79
2022/11/15 05:10:23;;;;;;;96.13;36.70;;;;;;;5.31;100.00;95142.19;5024453;28;20223;-79
2022/11/15 05:12:50;;;;;;;106.23;36.70;;;;;;;5.30;100.00;95138.81;5030248;28;20208;-78
2022/11/15 05:15:17;;;;;;;116.40;38.33;;;;;;;5.33;100.00;95141.06;5021882;28;20552;-77
2022/11/15 05:17:44;;;;;;;116.60;37.77;;;;;;;5.31;100.00;95135.25;5021440;28;20208;-77
2022/11/15 05:20:11;;;;;;;116.80;39.47;;;;;;;5.38;100.00;95137.94;5019083;28;20821;-76
2022/11/15 05:22:39;;;;;;;112.50;39.10;;;;;;;5.39;100.00;95134.41;5017215;28;20198;-77
2022/11/15 05:25:07;;;;;;;122.43;42.53;;;;;;;5.29;100.00;95119.16;5021304;28;20207;-76
2022/11/15 05:27:35;;;;;;;115.70;41.47;;;;;;;5.37;100.00;95129.41;5020620;28;20199;-78
2022/11/15 05:30:02;;;;;;;119.97;40.10;;;;;;;5.31;100.00;95127.50;5018495;28;20589;-77
2022/11/15 05:32:29;;;;;;;112.73;41.83;;;;;;;5.26;100.00;95122.09;5018771;28;20695;-76
2022/11/15 05:34:57;;;;;;;127.87;43.13;;;;;;;5.24;100.00;95129.19;5018490;28;20200;-76
2022/11/15 05:37:23;;;;;;;137.87;45.40;;;;;;;5.20;100.00;95129.69;5018879;28;20204;-76
2022/11/15 05:39:50;;;;;;;122.37;41.87;;;;;;;5.21;100.00;95124.41;5020908;28;20201;-77
2022/11/15 05:42:17;;;;;;;131.10;42.77;;;;;;;5.12;100.00;95115.94;5018692;28;20202;-77
2022/11/15 05:44:48;;;;;;;139.70;44.23;;;;;;;5.18;100.00;95129.88;5020611;28;20611;-75
2022/11/15 05:47:20;;;;;;;131.87;44.33;;;;;;;5.15;100.00;95127.66;5017388;28;20194;-76
2022/11/15 05:49:48;;;;;;;119.93;43.97;;;;;;;5.18;100.00;95129.09;5017463;28;20209;-77
2022/11/15 05:52:19;;;;;;;128.00;46.13;;;;;;;5.22;100.00;95138.09;5019086;28;20221;-77
2022/11/15 05:54:47;;;;;;;128.50;43.73;;;;;;;5.13;100.00;95132.19;5026652;28;20309;-78
2022/11/15 05:57:13;;;;;;;132.00;46.03;;;;;;;5.17;100.00;95142.97;5019498;28;20212;-77
2022/11/15 05:59:43;;;;;;;127.20;46.70;;;;;;;5.13;100.00;95135.56;5017698;28;20193;-76
2022/11/15 06:02:11;;;;;;;129.53;47.67;;;;;;;5.16;100.00;95137.00;5017321;28;20205;-76
2022/11/15 06:04:38;;;;;;;127.77;45.90;;;;;;;5.22;100.00;95138.09;5022216;28;20229;-80
2022/11/15 06:07:05;;;;;;;117.07;44.50;;;;;;;5.32;100.00;95147.16;5024778;28;20219;-80
2022/11/15 06:09:32;;;;;;;104.80;39.70;;;;;;;5.36;100.00;95143.28;5039253;28;20255;-81
2022/11/15 06:11:58;;;;;;;135.87;41.43;;;;;;;5.33;100.00;95137.66;5042475;28;20211;-81
2022/11/15 06:14:25;;;;;;;117.13;41.20;;;;;;;5.27;100.00;95157.19;5038938;28;20214;-78
2022/11/15 06:16:52;;;;;;;110.87;41.93;;;;;;;5.30;100.00;95150.91;5036961;28;20217;-80
2022/11/15 06:19:20;;;;;;;114.97;41.00;;;;;;;5.18;100.00;95142.78;5032272;28;20194;-75
2022/11/15 06:21:47;;;;;;;122.17;42.83;;;;;;;5.28;100.00;95147.69;5020932;28;20216;-74
2022/11/15 06:24:14;;;;;;;117.90;40.80;;;;;;;5.20;100.00;95147.75;5018131;28;20252;-75
2022/11/15 06:26:40;;;;;;;116.80;38.83;;;;;;;5.18;100.00;95147.91;5018251;28;20201;-74
2022/11/15 06:29:07;;;;;;;118.53;41.77;;;;;;;5.17;100.00;95145.53;5018751;28;20228;-74
2022/11/15 06:31:35;;;;;;;119.07;41.77;;;;;;;5.19;100.00;95141.81;5018866;28;20192;-75
2022/11/15 06:34:02;;;;;;;111.70;41.00;;;;;;;5.21;100.00;95136.47;5019324;28;20906;-75
2022/11/15 06:36:30;;;;;;;122.73;40.50;;;;;;;5.21;100.00;95139.84;5020624;28;20201;-74
2022/11/15 06:38:57;;;;;;;113.50;39.87;;;;;;;5.21;100.00;95139.03;5018770;28;21488;-75
2022/11/15 06:41:24;;;;;;;111.33;40.60;;;;;;;5.23;100.00;95142.25;5015990;28;20204;-75
2022/11/15 06:43:51;;;;;;;118.40;41.87;;;;;;;5.34;100.00;95139.28;5018551;28;20199;-75
2022/11/15 06:46:18;;;;;;;119.17;42.07;;;;;;;5.34;100.00;95140.06;5015356;28;20203;-75
2022/11/15 06:48:44;;;;;;;114.27;41.33;;;;;;;5.39;100.00;95131.81;5016937;28;20287;-75
2022/11/15 06:51:11;;;;;;;127.93;44.30;;;;;;;5.40;100.00;95131.63;5018957;28;20638;-75
2022/11/15 06:53:39;;;;;;;115.83;42.90;;;;;;;5.41;100.00;95130.66;5016545;28;20596;-76
2022/11/15 06:56:08;;;;;;;122.50;43.27;;;;;;;5.41;100.00;95130.66;5015295;28;20201;-75
2022/11/15 06:58:36;;;;;;;114.70;44.27;;;;;;;5.51;100.00;95135.59;5017745;28;20197;-75
2022/11/15 07:01:04;;;;;;;124.57;43.90;;;;;;;5.54;100.00;95140.38;5027844;28;20209;-79
2022/11/15 07:03:31;;;;;;;115.83;43.10;;;;;;;5.57;100.00;95133.09;5028533;28;20200;-79
2022/11/15 07:05:58;;;;;;;126.87;43.23;;;;;;;5.49;100.00;95132.34;5022403;28;20234;-79
2022/11/15 07:08:29;;;;;;;127.27;42.27;;;;;;;5.62;100.00;95135.97;5020259;28;20286;-79
2022/11/15 07:11:00;;;;;;;114.97;42.70;;;;;;;5.66;100.00;95129.47;5034588;28;20210;-79
2022/11/15 07:13:27;;;;;;;122.67;45.07;;;;;;;5.64;100.00;95125.47;5028802;28;20215;-79
2022/11/15 07:15:54;;;;;;;125.03;46.00;;;;;;;5.62;100.00;95132.56;5032332;28;20215;-79
2022/11/15 07:18:21;;;;;;;127.90;49.00;;;;;;;5.55;100.00;95108.47;5035476;28;20281;-78
2022/11/15 07:20:48;;;;;;;144.20;51.33;;;;;;;5.75;100.00;95122.44;5034716;28;20213;-79
2022/11/15 07:23:15;;;;;;;146.50;52.63;;;;;;;5.76;100.00;95129.22;5033879;28;20593;-79
2022/11/15 07:25:42;;;;;;;134.53;53.33;;;;;;;5.71;100.00;95134.09;5030721;28;20202;-80
2022/11/15 07:28:10;;;;;;;140.50;52.47;;;;;;;5.68;100.00;95134.47;5022256;28;20206;-79
2022/11/15 07:30:37;;;;;;;156.40;54.53;;;;;;;5.71;100.00;95136.69;5038916;28;20230;-80
2022/11/15 07:33:04;;;;;;;152.97;53.13;;;;;;;5.73;100.00;95130.38;5024597;28;20266;-78
2022/11/15 07:35:31;;;;;;;141.67;53.17;;;;;;;5.81;100.00;95137.22;5025635;28;20198;-79
2022/11/15 07:37:59;;;;;;;141.33;52.33;;;;;;;5.80;100.00;95127.88;5041785;28;20201;-79
2022/11/15 07:40:26;;;;;;;144.30;53.37;;;;;;;5.85;100.00;95135.09;5035942;28;20208;-80
2022/11/15 07:42:56;;;;;;;140.93;51.97;;;;;;;5.85;100.00;95135.09;5036839;28;20210;-80
2022/11/15 07:45:26;;;;;;;156.13;56.50;;;;;;;5.70;100.00;95132.50;5016279;28;21140;-79
2022/11/15 07:47:53;;;;;;;168.13;60.13;;;;;;;5.56;100.00;95135.84;5030486;28;20296;-79
2022/11/15 07:50:20;;;;;;;178.73;61.20;;;;;;;5.25;100.00;95133.38;5023976;28;20225;-80
2022/11/15 07:52:47;;;;;;;166.70;59.23;;;;;;;5.11;100.00;95134.13;5018359;28;20201;-79
2022/11/15 07:55:14;;;;;;;185.00;63.30;;;;;;;5.01;100.00;95131.78;5036756;28;20219;-78
2022/11/15 07:57:41;;;;;;;183.10;62.47;;;;;;;5.07;100.00;95127.72;5029412;28;20202;-78
2022/11/15 08:00:09;;;;;;;186.50;62.07;;;;;;;5.19;100.00;95128.94;5020615;28;20613;-77
2022/11/15 08:02:37;;;;;;;166.47;60.00;;;;;;;5.22;100.00;95123.44;5025821;28;20232;-78
2022/11/15 08:05:04;;;;;;;167.50;58.93;;;;;;;5.21;100.00;95126.16;5016866;28;20229;-77
2022/11/15 08:07:32;;;;;;;157.63;57.10;;;;;;;5.27;100.00;95128.06;5028198;28;20261;-78
2022/11/15 08:10:07;;;;;;;160.60;58.20;;;;;;;5.15;100.00;95122.50;5036371;28;20558;-79
2022/11/15 08:12:34;;;;;;;170.13;61.03;;;;;;;5.13;100.00;95122.69;5026407;28;20281;-80
2022/11/15 08:15:01;;;;;;;176.07;63.63;;;;;;;5.23;100.00;95121.63;5029873;28;20807;-78
2022/11/15 08:17:31;;;;;;;173.00;61.53;;;;;;;5.28;100.00;95117.56;5037873;28;20232;-79
2022/11/15 08:20:00;;;;;;;180.87;63.87;;;;;;;5.35;100.00;95121.06;5036283;28;20197;-78
2022/11/15 08:22:27;;;;;;;183.60;62.23;;;;;;;5.50;100.00;95116.75;5036115;28;20200;-79
2022/11/15 08:24:53;;;;;;;168.30;61.43;;;;;;;5.57;100.00;95119.41;5034945;28;20201;-79
2022/11/15 08:27:20;;;;;;;176.77;63.00;;;;;;;5.63;100.00;95123.84;5028426;28;20205;-79
2022/11/15 08:29:49;;;;;;;172.77;64.07;;;;;;;5.69;100.00;95108.47;5020664;28;20229;-75
2022/11/15 08:32:17;;;;;;;166.30;61.40;;;;;;;5.76;100.00;95107.78;5015070;28;20190;-75
2022/11/15 08:34:44;;;;;;;169.30;62.40;;;;;;;5.84;100.00;95116.22;5018090;28;20205;-75
2022/11/15 08:37:15;;;;;;;152.47;58.40;;;;;;;5.91;100.00;95111.22;5017393;28;20991;-75
2022/11/15 08:39:42;;;;;;;166.50;61.60;;;;;;;5.94;100.00;95110.84;5017128;28;20197;-74
2022/11/15 08:42:09;;;;;;;175.00;61.73;;;;;;;5.97;100.00;95106.16;5014353;28;20205;-74
2022/11/15 08:44:35;;;;;;;171.17;62.07;;;;;;;6.02;100.00;95108.19;5014912;28;20202;-76
2022/11/15 08:47:02;;;;;;;177.27;63.00;;;;;;;6.06;100.00;95099.13;5015812;28;20670;-74
2022/11/15 08:49:29;;;;;;;170.73;61.20;;;;;;;6.18;100.00;95097.66;5013963;28;20230;-75
2022/11/15 08:51:56;;;;;;;161.43;60.23;;;;;;;6.24;100.00;95104.69;5016258;28;20963;-75
2022/11/15 08:54:24;;;;;;;158.87;58.20;;;;;;;6.34;100.00;95096.66;5015920;28;20633;-74
2022/11/15 08:56:51;;;;;;;162.77;58.60;;;;;;;6.38;100.00;95096.13;5016406;28;20198;-74
2022/11/15 08:59:17;;;;;;;150.50;57.30;;;;;;;6.38;100.00;95092.75;5013419;28;20201;-74
2022/11/15 09:01:44;;;;;;;151.63;57.60;;;;;;;6.41;100.00;95093.16;5016612;28;20257;-74
2022/11/15 09:04:11;;;;;;;156.00;60.70;;;;;;;6.39;100.00;95079.66;5015857;28;20298;-75
2022/11/15 09:06:38;;;;;;;159.93;59.47;;;;;;;6.42;100.00;95070.75;5014931;28;20207;-75
2022/11/15 09:09:05;;;;;;;151.27;58.40;;;;;;;6.33;100.00;95080.38;5014858;28;20204;-76
2022/11/15 09:11:33;;;;;;;160.50;60.00;;;;;;;6.39;100.00;95065.94;5014281;28;20204;-76
2022/11/15 09:13:59;;;;;;;146.63;58.87;;;;;;;6.42;100.00;95071.53;5015063;28;20187;-75
2022/11/15 09:16:26;;;;;;;152.70;57.27;;;;;;;6.43;100.00;95059.44;5013766;28;20206;-75
2022/11/15 09:18:53;;;;;;;143.97;57.27;;;;;;;6.58;100.00;95068.72;5015131;28;20209;-75
2022/11/15 09:21:20;;;;;;;154.70;60.97;;;;;;;6.64;100.00;95065.41;5016069;28;20224;-76
2022/11/15 09:23:47;;;;;;;143.83;56.33;;;;;;;6.65;100.00;95064.44;5015794;28;20207;-75
2022/11/15 09:26:14;;;;;;;134.23;53.80;;;;;;;6.67;100.00;95056.50;5020275;28;20235;-79
2022/11/15 09:28:42;;;;;;;131.57;54.90;;;;;;;6.61;100.00;95046.94;5023287;28;20196;-74
2022/11/15 09:31:25;;;;;;;130.57;52.50;;;;;;;6.65;100.00;95037.81;5023866;28;20244;-75
2022/11/15 09:33:53;;;;;;;144.27;57.40;;;;;;;6.72;100.00;95046.44;5022399;28;20190;-80
2022/11/15 09:36:20;;;;;;;136.57;54.83;;;;;;;6.79;100.00;95049.88;5027614;28;20272;-80
2022/11/15 09:38:46;;;;;;;139.63;56.70;;;;;;;6.90;100.00;95041.63;5027549;28;20629;-80
2022/11/15 09:41:35;;;;;;;131.20;54.03;;;;;;;7.02;100.00;95037.56;5018962;28;20196;-79
2022/11/15 09:44:34;;;;;;;135.90;54.87;;;;;;;7.16;100.00;95035.88;5027683;28;20183;-79
2022/11/15 09:47:16;;;;;;;126.93;51.37;;;;;;;7.11;100.00;95022.72;5021465;28;20191;-79
2022/11/15 09:49:43;;;;;;;116.47;48.90;;;;;;;7.14;100.00;95022.34;5026094;28;20210;-82
2022/11/15 09:52:11;;;;;;;114.33;50.40;;;;;;;7.23;100.00;95027.19;5028412;28;20206;-79
2022/11/15 09:54:40;;;;;;;114.43;51.70;;;;;;;7.27;100.00;95027.63;5020112;28;20210;-80
2022/11/15 09:57:12;;;;;;;114.90;51.13;;;;;;;7.53;100.00;95021.81;5015005;28;20286;-79
2022/11/15 09:59:55;;;;;;;108.77;49.90;;;;;;;7.82;100.00;95017.19;5021205;28;20180;-79
2022/11/15 10:02:38;;;;;;;114.73;49.93;;;;;;;8.12;100.00;95011.75;5018333;28;20619;-79
2022/11/15 10:05:11;;;;;;;104.73;47.83;;;;;;;8.30;100.00;95006.88;5019246;28;20226;-80
2022/11/15 10:07:57;;;;;;;106.13;48.00;;;;;;;8.68;100.00;95009.75;5033743;28;20761;-80
2022/11/15 10:10:30;;;;;;;99.83;46.20;;;;;;;9.19;99.40;95007.38;5026534;22;20223;-80
2022/11/15 10:12:58;;;;;;;93.50;45.10;;;;;;;10.08;96.74;95005.78;5048812;28;20206;-80
2022/11/15 10:15:27;;;;;;;94.93;47.63;;;;;;;10.78;91.16;94995.25;5050592;28;20194;-78
2022/11/15 10:18:06;;;;;;;95.93;46.03;;;;;;;11.71;88.97;95001.31;5036549;28;20191;-80
2022/11/15 10:20:41;;;;;;;96.97;46.37;;;;;;;12.50;83.39;94995.94;5036892;28;20211;-79
2022/11/15 10:23:13;;;;;;;92.60;46.77;;;;;;;13.42;80.70;95002.41;5036314;28;20256;-79
2022/11/15 10:25:40;;;;;;;96.43;46.20;;;;;;;14.44;76.64;95002.75;5042470;28;20244;-79
2022/11/15 10:28:22;;;;;;;92.37;46.20;;;;;;;15.26;72.06;95004.75;5049268;28;20205;-80
2022/11/15 10:30:53;;;;;;;94.03;47.37;;;;;;;15.99;69.37;95000.31;5041424;28;20202;-79
2022/11/15 10:33:26;;;;;;;85.23;45.50;;;;;;;16.22;67.68;95000.09;5038586;28;20198;-80
2022/11/15 10:36:18;;;;;;;85.60;46.83;;;;;;;16.82;66.00;94992.13;5044509;28;20209;-75
2022/11/15 10:38:58;;;;;;;89.77;47.07;;;;;;;17.09;65.02;94981.59;5042469;28;20202;-75
2022/11/15 10:41:40;;;;;;;89.33;45.90;;;;;;;17.19;63.00;94974.59;5043631;28;20186;-75
2022/11/15 10:44:29;;;;;;;80.93;45.50;;;;;;;17.59;62.65;94984.63;5042908;28;20598;-75
2022/11/15 10:47:25;;;;;;;92.23;47.53;;;;;;;18.28;60.39;94969.47;5038541;28;20286;-75
2022/11/15 10:49:58;;;;;;;89.90;47.27;;;;;;;18.67;58.99;94968.03;5042353;28;20768;-75
2022/11/15 10:52:26;;;;;;;81.97;46.23;;;;;;;18.85;57.07;94929.09;5040106;28;20178;-80
2022/11/15 10:54:57;;;;;;;83.87;45.97;;;;;;;19.50;55.49;94965.25;5043962;28;20197;-79
2022/11/15 10:57:27;;;;;;;86.43;45.80;;;;;;;19.74;55.63;94969.69;5042596;28;20238;-79
2022/11/15 10:59:58;;;;;;;88.73;47.57;;;;;;;19.86;54.24;94950.91;5041494;28;20178;-80
2022/11/15 11:02:32;;;;;;;80.00;46.47;;;;;;;19.85;54.10;94959.91;5039842;28;20493;-79
2022/11/15 11:04:59;;;;;;;85.83;47.37;;;;;;;19.69;54.03;94951.22;5033298;28;20610;-80
2022/11/15 11:07:28;;;;;;;79.50;46.90;;;;;;;19.86;53.54;94944.84;5047138;28;20746;-80
2022/11/15 11:10:01;;;;;;;84.82;47.78;;;;;;;20.05;53.03;94938.75;5041677;28;20286;-80
2022/11/15 11:12:31;;;;;;;80.90;48.58;;;;;;;20.20;52.18;94943.94;5051893;28;20224;-80
2022/11/15 11:14:59;;;;;;;82.85;46.75;;;;;;;20.46;52.18;94939.34;5041425;28;20570;-80
2022/11/15 11:17:37;;;;;;;90.72;47.80;;;;;;;20.60;50.67;94939.56;5032493;28;20210;-79
2022/11/15 11:20:11;;;;;;;87.85;47.92;;;;;;;20.37;50.91;94930.44;5032451;28;20179;-79
2022/11/15 11:22:49;;;;;;;83.75;48.40;;;;;;;20.27;51.54;94923.34;5049882;28;20190;-79
2022/11/15 11:25:27;;;;;;;91.57;48.63;;;;;;;20.25;51.42;94924.69;5049919;28;20655;-80
2022/11/15 11:28:26;;;;;;;91.75;50.10;;;;;;;19.94;51.93;94910.78;5034812;28;20191;-79
2022/11/15 11:31:05;;;;;;;90.65;50.50;;;;;;;19.93;51.95;94911.06;5038108;28;20203;-78
2022/11/15 11:33:40;;;;;;;88.60;50.03;;;;;;;20.08;51.78;94911.00;5048176;28;20628;-75